Time;durP1;ratioP1;P1;durP2;ratioP2;P2;SDS_P1;SDS_P2;PMS_P1;PMS_P2;Temp;Humidity;BMP_temperature;BMP_pressure;BME280_temperature;BME280_humidity;BME280_pressure;Samples;Min_cycle;Max_cycle;Signal;HPM_P1;HPM_P2
2022/11/28 06:55:22;;;;;;;22.93;15.10;;;;;;;-1.60;100.00;100908.73;1782384;79;22487;-68
2022/11/28 06:57:49;;;;;;;17.17;11.50;;;;;;;-1.45;100.00;100914.75;1752629;82;21019;-68
2022/11/28 07:00:16;;;;;;;12.75;9.30;;;;;;;-1.19;100.00;100913.58;1752805;82;21031;-68
2022/11/28 07:02:43;;;;;;;10.48;7.58;;;;;;;-0.94;100.00;100920.24;1699909;82;20995;-68
2022/11/28 07:05:09;;;;;;;;;;;;;;;-0.72;100.00;100913.70;1755243;82;21027;-68
2022/11/28 07:07:36;;;;;;;9.28;6.60;;;;;;;-0.54;100.00;100913.49;1752741;82;20416;-67
2022/11/28 07:10:03;;;;;;;8.68;6.28;;;;;;;-0.54;100.00;100911.66;1752738;81;21620;-68
2022/11/28 07:12:30;;;;;;;8.23;6.08;;;;;;;-0.35;100.00;100909.06;1753099;82;21531;-67
2022/11/28 07:14:56;;;;;;;9.58;7.28;;;;;;;-0.13;100.00;100915.00;1752743;82;21079;-68
2022/11/28 07:17:22;;;;;;;13.00;8.70;;;;;;;-0.06;100.00;100911.13;1752156;82;21034;-68
2022/11/28 07:19:49;;;;;;;12.18;8.73;;;;;;;-0.01;100.00;100903.41;1751252;81;21149;-68
2022/11/28 07:22:15;;;;;;;13.53;9.65;;;;;;;0.00;100.00;100898.40;1751631;82;20994;-68
2022/11/28 07:24:42;;;;;;;18.07;13.35;;;;;;;0.11;100.00;100903.33;1751696;82;21094;-68
2022/11/28 07:27:08;;;;;;;17.50;12.82;;;;;;;0.14;100.00;100896.81;1751731;82;21018;-68
2022/11/28 07:29:35;;;;;;;16.27;12.03;;;;;;;0.17;100.00;100896.45;1751895;82;21059;-68
2022/11/28 07:32:04;;;;;;;18.80;13.78;;;;;;;0.23;100.00;100900.59;1751796;82;21090;-68
2022/11/28 07:34:31;;;;;;;20.37;13.70;;;;;;;0.28;100.00;100900.08;1752050;82;21415;-68
2022/11/28 07:36:57;;;;;;;20.72;14.47;;;;;;;0.33;100.00;100900.36;1752393;82;21039;-68
2022/11/28 07:39:24;;;;;;;18.80;13.38;;;;;;;0.41;100.00;100901.16;1752125;82;21054;-68
2022/11/28 07:41:51;;;;;;;21.65;15.45;;;;;;;0.49;100.00;100903.78;1752094;82;21494;-66
2022/11/28 07:44:17;;;;;;;20.25;14.80;;;;;;;0.47;100.00;100898.25;1751788;82;21616;-66
2022/11/28 07:46:44;;;;;;;18.55;12.82;;;;;;;0.44;100.00;100894.59;1752063;82;21020;-66
2022/11/28 07:49:13;;;;;;;18.77;13.43;;;;;;;0.48;100.00;100897.25;1751798;81;21624;-66
2022/11/28 07:51:40;;;;;;;20.77;13.90;;;;;;;0.60;100.00;100896.34;1751464;81;21530;-66
2022/11/28 07:54:06;;;;;;;19.82;13.45;;;;;;;0.60;100.00;100897.67;1751937;81;21047;-66
2022/11/28 07:56:35;;;;;;;18.90;12.65;;;;;;;0.60;100.00;100904.38;1752625;82;21054;-66
2022/11/28 07:59:03;;;;;;;18.67;11.78;;;;;;;0.69;100.00;100904.63;1752509;82;21070;-66
2022/11/28 08:01:36;;;;;;;15.32;11.45;;;;;;;0.74;100.00;100906.28;1752586;82;21019;-66
2022/11/28 08:04:05;;;;;;;20.35;13.70;;;;;;;0.75;100.00;100907.42;1752268;82;21465;-66
2022/11/28 08:06:38;;;;;;;17.20;12.73;;;;;;;0.70;100.00;100895.08;1752862;82;21090;-65
2022/11/28 08:09:05;;;;;;;19.52;14.65;;;;;;;0.73;100.00;100905.44;1752225;82;21015;-66
2022/11/28 08:11:32;;;;;;;19.05;13.58;;;;;;;0.78;100.00;100904.91;1753045;82;20984;-66
2022/11/28 08:14:01;;;;;;;18.98;13.85;;;;;;;0.79;100.00;100901.19;1752865;82;21041;-66
2022/11/28 08:16:28;;;;;;;19.90;13.70;;;;;;;0.84;100.00;100904.17;1753134;82;21366;-66
2022/11/28 08:18:54;;;;;;;14.45;10.88;;;;;;;0.85;100.00;100901.84;1752976;82;21007;-66
2022/11/28 08:21:29;;;;;;;12.15;9.28;;;;;;;0.83;100.00;100906.52;1753183;82;21444;-66
2022/11/28 08:23:58;;;;;;;9.78;7.60;;;;;;;0.93;100.00;100911.13;1753124;82;21535;-67
2022/11/28 08:26:26;;;;;;;12.68;9.83;;;;;;;1.04;100.00;100917.90;1753225;81;20963;-66
2022/11/28 08:28:53;;;;;;;12.90;8.88;;;;;;;1.04;100.00;100917.39;1753063;82;21575;-66
2022/11/28 08:31:20;;;;;;;;;;;;;;;1.04;100.00;100916.06;1755720;82;20979;-67
2022/11/28 08:33:48;;;;;;;12.03;8.38;;;;;;;1.06;100.00;100930.14;1753009;82;20488;-66
2022/11/28 08:36:15;;;;;;;12.95;9.05;;;;;;;1.07;100.00;100929.09;1753141;82;20952;-66
2022/11/28 08:38:45;;;;;;;12.00;9.35;;;;;;;1.10;100.00;100940.80;1753144;82;21577;-66
2022/11/28 08:41:18;;;;;;;11.22;9.13;;;;;;;1.09;100.00;100941.00;1753268;82;20983;-66
2022/11/28 08:43:45;;;;;;;11.03;8.13;;;;;;;1.06;100.00;100938.18;1752576;82;21055;-66
2022/11/28 08:46:14;;;;;;;10.20;8.63;;;;;;;1.09;100.00;100942.34;1753184;82;20967;-67
2022/11/28 08:48:41;;;;;;;10.78;8.10;;;;;;;1.18;100.00;100942.08;1753178;82;21636;-67
2022/11/28 08:51:13;;;;;;;12.23;9.03;;;;;;;1.25;100.00;100946.20;1753217;82;21010;-67
2022/11/28 08:53:40;;;;;;;10.45;7.65;;;;;;;1.18;100.00;100948.78;1753087;82;21442;-67
2022/11/28 08:56:07;;;;;;;10.10;7.25;;;;;;;1.14;100.00;100946.13;1753203;82;21003;-67
2022/11/28 08:58:33;;;;;;;12.50;9.40;;;;;;;1.17;100.00;100940.94;1753061;82;21000;-66
2022/11/28 09:00:59;;;;;;;16.07;10.45;;;;;;;1.26;100.00;100939.33;1753184;82;21066;-67
2022/11/28 09:03:26;;;;;;;9.15;6.72;;;;;;;1.40;100.00;100939.02;1752925;82;20971;-67
2022/11/28 09:05:52;;;;;;;8.85;6.83;;;;;;;1.43;100.00;100931.94;1753245;82;21051;-66
2022/11/28 09:08:19;;;;;;;8.85;6.60;;;;;;;1.44;100.00;100936.30;1753202;82;21040;-68
2022/11/28 09:10:46;;;;;;;8.18;6.50;;;;;;;1.40;100.00;100926.94;1752740;82;21006;-67
2022/11/28 09:13:13;;;;;;;;;;;;;;;1.42;100.00;100929.76;1755615;82;21032;-67
2022/11/28 09:15:41;;;;;;;10.40;7.85;;;;;;;1.52;100.00;100924.65;1752879;82;20127;-67
2022/11/28 09:18:08;;;;;;;9.38;7.45;;;;;;;1.50;100.00;100920.80;1753161;82;21027;-69
2022/11/28 09:20:35;;;;;;;9.20;7.12;;;;;;;1.48;100.00;100921.00;1752824;82;21056;-68
2022/11/28 09:23:02;;;;;;;9.18;7.47;;;;;;;1.50;100.00;100919.45;1753122;82;21038;-69
2022/11/28 09:25:28;;;;;;;8.88;6.45;;;;;;;1.50;100.00;100912.74;1753174;82;21103;-69
2022/11/28 09:27:54;;;;;;;;;;;;;;;1.59;100.00;100913.50;1755812;82;20972;-69
2022/11/28 09:30:21;;;;;;;12.03;7.62;;;;;;;1.63;100.00;100910.23;1752868;82;20126;-69
2022/11/28 09:32:48;;;;;;;11.28;8.33;;;;;;;1.54;100.00;100910.52;1752713;82;21007;-69
2022/11/28 09:35:16;;;;;;;11.50;7.92;;;;;;;1.44;100.00;100912.98;1751483;82;21592;-69
2022/11/28 09:37:43;;;;;;;8.98;7.03;;;;;;;1.37;100.00;100912.05;1751359;82;21078;-69
2022/11/28 09:40:21;;;;;;;9.98;7.47;;;;;;;1.44;100.00;100909.47;1751350;82;21110;-68
2022/11/28 09:42:48;;;;;;;9.95;7.60;;;;;;;1.44;100.00;100910.80;1751484;82;21011;-69
2022/11/28 09:45:21;;;;;;;10.98;8.50;;;;;;;1.46;100.00;100911.44;1751791;82;21125;-69
2022/11/28 09:47:57;;;;;;;10.38;7.75;;;;;;;1.46;100.00;100910.94;1751652;81;21027;-69
2022/11/28 09:50:27;;;;;;;10.93;8.33;;;;;;;1.46;100.00;100905.57;1751556;82;21086;-69
2022/11/28 09:53:01;;;;;;;13.65;9.68;;;;;;;1.46;100.00;100899.37;1751499;82;21540;-69
2022/11/28 09:55:50;;;;;;;20.08;14.53;;;;;;;1.39;100.00;100898.44;1751158;81;21153;-69
2022/11/28 09:58:57;;;;;;;24.32;15.35;;;;;;;1.34;100.00;100907.56;1753064;82;20976;-69
2022/11/28 10:01:41;;;;;;;25.25;16.55;;;;;;;1.34;100.00;100897.67;1753027;82;21617;-69
2022/11/28 10:04:34;;;;;;;24.98;16.35;;;;;;;1.37;100.00;100902.66;1752246;82;21078;-69
2022/11/28 10:07:20;;;;;;;21.45;14.47;;;;;;;1.31;100.00;100895.86;1752775;82;21051;-68
2022/11/28 10:10:37;;;;;;;22.87;14.20;;;;;;;1.24;100.00;100892.25;1752945;81;21574;-69
2022/11/28 10:13:29;;;;;;;25.90;16.52;;;;;;;1.16;100.00;100894.50;1752953;82;21474;-70
2022/11/28 10:16:19;;;;;;;28.83;18.02;;;;;;;1.15;100.00;100882.60;1731974;82;21027;-69
2022/11/28 10:18:53;;;;;;;29.82;18.35;;;;;;;1.10;100.00;100883.14;1752750;82;21102;-69
2022/11/28 10:21:27;;;;;;;25.95;16.62;;;;;;;1.07;100.00;100882.17;1751798;82;21069;-69
2022/11/28 10:23:58;;;;;;;26.35;16.70;;;;;;;1.15;100.00;100881.26;1752210;82;21071;-68
2022/11/28 10:26:30;;;;;;;27.17;17.10;;;;;;;1.26;100.00;100876.28;1751981;82;21019;-68
2022/11/28 10:28:58;;;;;;;24.55;16.10;;;;;;;1.18;100.00;100880.89;1750603;82;21113;-68
2022/11/28 10:31:35;;;;;;;26.07;17.07;;;;;;;1.02;100.00;100880.56;1752262;82;21542;-68
2022/11/28 10:34:25;;;;;;;25.20;15.90;;;;;;;0.99;100.00;100882.27;1752060;82;21062;-68
2022/11/28 10:37:05;;;;;;;24.23;15.83;;;;;;;1.09;100.00;100877.98;1752181;82;21617;-68
2022/11/28 10:39:36;;;;;;;24.43;15.85;;;;;;;1.07;100.00;100880.83;1752275;82;21094;-68
2022/11/28 10:42:43;;;;;;;26.55;17.82;;;;;;;1.10;100.00;100885.82;1752148;82;20991;-68
2022/11/28 10:45:35;;;;;;;31.02;19.30;;;;;;;1.22;100.00;100890.23;1751839;82;21157;-68
2022/11/28 10:48:22;;;;;;;36.45;23.25;;;;;;;1.27;100.00;100887.34;1751939;82;21020;-68
2022/11/28 10:50:58;;;;;;;32.85;21.17;;;;;;;1.27;100.00;100894.06;1751517;82;21565;-68
2022/11/28 10:53:50;;;;;;;38.13;25.82;;;;;;;1.28;100.00;100898.38;1739619;82;21035;-68
2022/11/28 10:56:43;;;;;;;35.05;22.52;;;;;;;1.34;100.00;100895.49;1751215;82;21624;-68
2022/11/28 10:59:34;;;;;;;35.60;22.27;;;;;;;1.23;100.00;100896.77;1751488;82;21344;-68
2022/11/28 11:02:23;;;;;;;34.45;20.90;;;;;;;1.16;100.00;100893.66;1726672;82;21023;-68
2022/11/28 11:04:51;;;;;;;40.17;24.32;;;;;;;1.18;100.00;100895.14;1752618;82;21119;-68
2022/11/28 11:07:28;;;;;;;39.75;25.08;;;;;;;1.19;100.00;100895.97;1753094;82;21002;-68
2022/11/28 11:09:59;;;;;;;41.47;26.03;;;;;;;1.10;100.00;100903.25;1749227;82;21522;-68
2022/11/28 11:12:27;;;;;;;36.53;23.62;;;;;;;1.03;100.00;100888.91;1753035;82;20999;-69
2022/11/28 11:14:54;;;;;;;33.55;21.55;;;;;;;1.06;100.00;100889.91;1752798;82;21047;-68
2022/11/28 11:17:32;;;;;;;33.85;21.30;;;;;;;1.13;100.00;100888.67;1752999;82;21051;-68
2022/11/28 11:19:59;;;;;;;36.70;22.87;;;;;;;1.08;100.00;100889.20;1749824;82;21019;-68
2022/11/28 11:22:30;;;;;;;33.63;21.80;;;;;;;1.05;100.00;100890.92;1753082;82;21486;-68
2022/11/28 11:25:15;;;;;;;35.58;21.62;;;;;;;1.04;100.00;100886.56;1752626;81;21070;-68
2022/11/28 11:27:56;;;;;;;33.55;21.77;;;;;;;1.14;100.00;100893.83;1752989;81;21034;-68
2022/11/28 11:30:28;;;;;;;36.70;23.27;;;;;;;1.20;100.00;100892.28;1752779;82;21106;-68
2022/11/28 11:32:55;;;;;;;37.20;22.70;;;;;;;1.18;100.00;100880.38;1753159;82;21010;-68
2022/11/28 11:35:34;;;;;;;34.55;21.48;;;;;;;1.15;100.00;100875.39;1752851;82;21565;-68
2022/11/28 11:38:22;;;;;;;37.03;22.73;;;;;;;1.17;100.00;100885.95;1725771;82;20991;-68
2022/11/28 11:40:49;;;;;;;33.92;21.77;;;;;;;1.24;100.00;100885.55;1753111;82;21629;-68
2022/11/28 11:43:31;;;;;;;35.25;22.15;;;;;;;1.18;100.00;100885.75;1753411;82;20977;-68
2022/11/28 11:46:08;;;;;;;34.15;21.73;;;;;;;1.06;100.00;100881.03;1752986;82;21023;-68
2022/11/28 11:48:40;;;;;;;37.50;22.45;;;;;;;0.99;100.00;100884.41;1749942;82;21015;-68
2022/11/28 11:51:27;;;;;;;36.75;22.35;;;;;;;0.99;100.00;100885.76;1752536;82;21558;-68
2022/11/28 11:54:07;;;;;;;39.45;21.77;;;;;;;0.87;100.00;100883.20;1728591;82;21043;-68
2022/11/28 11:56:36;;;;;;;33.30;21.70;;;;;;;0.86;100.00;100884.71;1750381;82;21503;-68
2022/11/28 11:59:12;;;;;;;37.28;23.07;;;;;;;0.92;100.00;100881.33;1753125;82;21043;-68
2022/11/28 12:01:38;;;;;;;38.38;22.32;;;;;;;0.90;100.00;100884.68;1752634;81;21035;-68
2022/11/28 12:04:06;;;;;;;37.40;23.35;;;;;;;0.85;100.00;100890.58;1753152;82;21062;-68
2022/11/28 12:06:42;;;;;;;32.23;22.13;;;;;;;0.89;100.00;100896.41;1752919;82;21537;-68
2022/11/28 18:02:58;;;;;;;90.07;40.98;;;;;;;-1.00;100.00;100941.81;1771875;79;22986;-73
2022/11/28 18:05:42;;;;;;;62.95;34.95;;;;;;;-0.88;100.00;100947.12;1737246;82;21039;-73
2022/11/28 18:08:09;;;;;;;51.33;29.48;;;;;;;-0.61;100.00;100942.77;1738099;82;21163;-76
2022/11/28 18:10:36;;;;;;;52.15;31.93;;;;;;;-0.39;100.00;100947.06;1736150;82;20949;-73
2022/11/28 18:15:58;;;;;;;42.03;23.05;;;;;;;-0.02;100.00;100941.39;1800880;79;22904;-73
2022/11/28 18:18:24;;;;;;;41.13;23.95;;;;;;;0.06;100.00;100942.36;1764194;79;21057;-73
2022/11/28 18:20:51;;;;;;;;;;;;;;;0.11;100.00;100944.03;1765338;80;21055;-71
2022/11/28 18:23:18;;;;;;;40.12;23.50;;;;;;;0.19;100.00;100944.80;1748490;80;20130;-73
2022/11/28 18:25:44;;;;;;;37.67;23.32;;;;;;;0.28;100.00;100938.41;1745212;80;21932;-75
2022/11/28 18:28:11;;;;;;;;;;;;;;;0.36;100.00;100943.70;1767923;79;21068;-72
2022/11/28 18:30:44;;;;;;;36.30;22.25;;;;;;;0.37;100.00;100945.37;1779679;80;20179;-73
2022/11/28 18:33:12;;;;;;;35.68;22.52;;;;;;;0.38;100.00;100946.22;1784520;79;21114;-74
2022/11/28 18:35:39;;;;;;;41.77;23.10;;;;;;;0.50;100.00;100942.94;1786165;80;21058;-73
2022/11/28 18:38:06;;;;;;;42.62;23.67;;;;;;;0.57;100.00;100944.93;1786490;79;21130;-74
2022/11/28 18:40:33;;;;;;;46.30;24.23;;;;;;;0.56;100.00;100944.59;1786080;80;21031;-73
2022/11/28 18:43:03;;;;;;;37.75;21.97;;;;;;;0.60;100.00;100944.07;1786486;79;21061;-73
2022/11/28 18:45:31;;;;;;;43.50;24.45;;;;;;;0.68;100.00;100947.17;1786383;80;21094;-74
2022/11/28 18:47:58;;;;;;;44.83;22.70;;;;;;;0.66;100.00;100946.03;1758184;80;21101;-75
2022/11/28 18:50:24;;;;;;;41.42;21.75;;;;;;;0.75;100.00;100948.96;1758690;80;21025;-75
2022/11/28 18:52:51;;;;;;;48.50;23.65;;;;;;;0.84;100.00;100948.41;1755190;80;21017;-75
2022/11/28 18:55:19;;;;;;;45.35;22.62;;;;;;;0.80;100.00;100935.88;1756874;81;21014;-74
2022/11/28 18:57:45;;;;;;;51.35;23.45;;;;;;;0.79;100.00;100944.08;1731200;81;21038;-73
2022/11/28 19:00:12;;;;;;;;;;;;;;;0.81;100.00;100940.23;1762813;81;21541;-74
2022/11/28 19:02:39;;;;;;;49.35;23.85;;;;;;;0.78;100.00;100939.22;1759877;80;20520;-73
2022/11/28 19:05:07;;;;;;;42.95;21.68;;;;;;;0.68;100.00;100948.02;1758678;81;21062;-73
2022/11/28 19:07:34;;;;;;;49.77;22.80;;;;;;;0.77;100.00;100945.62;1758202;80;21204;-74
2022/11/28 19:10:01;;;;;;;39.53;21.07;;;;;;;0.76;100.00;100946.63;1758583;81;21093;-73
2022/11/28 19:12:29;;;;;;;37.53;20.10;;;;;;;0.74;100.00;100946.48;1758965;80;21066;-73
2022/11/28 19:14:56;;;;;;;53.35;23.18;;;;;;;0.80;100.00;100949.78;1723550;83;21096;-73
2022/11/28 19:17:23;;;;;;;40.78;22.00;;;;;;;0.79;100.00;100950.28;1721735;82;21144;-72
2022/11/28 19:19:50;;;;;;;39.48;21.57;;;;;;;0.76;100.00;100936.41;1721519;83;21578;-73
2022/11/28 19:22:17;;;;;;;46.60;21.97;;;;;;;0.81;100.00;100949.61;1716987;83;21077;-76
2022/11/28 19:24:44;;;;;;;;;;;;;;;0.75;100.00;100944.94;1724559;83;21570;-76
2022/11/28 19:27:10;;;;;;;38.67;18.85;;;;;;;0.74;100.00;100947.82;1721248;83;20172;-77
2022/11/28 19:29:37;;;;;;;41.40;20.25;;;;;;;0.79;100.00;100943.58;1719546;82;21056;-77
2022/11/28 19:32:04;;;;;;;37.05;19.52;;;;;;;0.74;100.00;100949.16;1723385;83;21617;-76
2022/11/28 19:34:31;;;;;;;34.95;19.90;;;;;;;0.71;100.00;100944.97;1692740;83;21457;-78
2022/11/28 19:36:57;;;;;;;39.05;20.20;;;;;;;0.76;100.00;100938.58;1723643;83;21056;-77
2022/11/28 19:39:26;;;;;;;33.80;19.45;;;;;;;0.70;100.00;100935.78;1722977;83;21103;-78
2022/11/28 19:41:54;;;;;;;33.20;19.00;;;;;;;0.70;100.00;100932.60;1697208;82;21118;-79
2022/11/28 19:44:22;;;;;;;;;;;;;;;0.74;100.00;100930.40;1713567;82;21064;-77
2022/11/28 19:46:49;;;;;;;30.02;17.35;;;;;;;0.71;100.00;100930.23;1743241;82;20131;-77
2022/11/28 19:49:18;;;;;;;34.95;18.35;;;;;;;0.66;100.00;100915.71;1741319;82;21046;-77
2022/11/28 19:51:46;;;;;;;35.28;19.00;;;;;;;0.71;100.00;100929.42;1725327;82;21601;-79
2022/11/28 19:54:13;;;;;;;34.58;18.75;;;;;;;0.72;100.00;100929.72;1665067;85;21060;-78
2022/11/28 19:56:39;;;;;;;31.10;18.15;;;;;;;0.74;100.00;100936.59;1674989;84;21929;-78
2022/11/28 19:59:06;;;;;;;28.83;16.05;;;;;;;0.69;100.00;100936.79;1655068;85;21425;-79
2022/11/28 20:01:33;;;;;;;28.07;15.15;;;;;;;0.73;100.00;100924.70;1672997;84;20947;-79
2022/11/28 20:04:00;;;;;;;;;;;;;;;0.73;100.00;100926.88;1679166;84;21043;-79
2022/11/28 20:06:29;;;;;;;25.12;14.15;;;;;;;0.71;100.00;100918.70;1678286;84;20115;-79
2022/11/28 20:09:04;;;;;;;30.45;14.70;;;;;;;0.72;100.00;100920.34;1671787;84;21002;-79
2022/11/28 20:11:36;;;;;;;28.38;16.35;;;;;;;0.72;100.00;100922.52;1694526;84;20960;-79
2022/11/28 20:14:05;;;;;;;25.37;14.83;;;;;;;0.71;100.00;100922.19;1694359;85;21935;-79
2022/11/28 20:16:33;;;;;;;27.85;15.30;;;;;;;0.80;100.00;100931.85;1744720;82;21046;-79
2022/11/28 20:19:00;;;;;;;28.98;17.20;;;;;;;0.82;100.00;100919.09;1744880;82;20947;-79
2022/11/28 20:21:27;;;;;;;27.02;16.57;;;;;;;0.72;100.00;100923.86;1744800;81;21538;-78
2022/11/28 20:23:55;;;;;;;;;;;;;;;0.72;100.00;100925.20;1747217;82;21007;-78
2022/11/28 20:26:25;;;;;;;28.35;16.30;;;;;;;0.81;100.00;100925.48;1744588;82;20445;-78
2022/11/28 20:28:54;;;;;;;25.97;14.03;;;;;;;0.72;100.00;100921.69;1717542;82;20975;-79
2022/11/28 20:31:29;;;;;;;28.85;14.55;;;;;;;0.67;100.00;100909.34;1744759;82;21034;-77
2022/11/28 20:33:56;;;;;;;30.20;15.88;;;;;;;0.78;100.00;100926.35;1744908;82;20971;-78
2022/11/28 20:36:23;;;;;;;;;;;;;;;0.72;100.00;100925.70;1747238;81;21007;-78
2022/11/28 20:38:50;;;;;;;29.50;14.05;;;;;;;0.78;100.00;100929.03;1744886;82;20115;-77
2022/11/28 20:41:18;;;;;;;34.25;14.80;;;;;;;0.75;100.00;100930.20;1744410;82;21030;-77
2022/11/28 20:43:44;;;;;;;22.05;14.10;;;;;;;0.75;100.00;100934.22;1720451;82;20988;-78
2022/11/28 20:46:22;;;;;;;38.38;16.30;;;;;;;0.86;100.00;100935.65;1704766;82;21050;-78
2022/11/28 20:48:49;;;;;;;27.75;15.53;;;;;;;0.86;100.00;100931.13;1700634;83;20994;-78
2022/11/28 20:51:20;;;;;;;33.00;17.57;;;;;;;0.88;100.00;100936.32;1680483;83;21024;-78
2022/11/28 20:53:47;;;;;;;46.00;17.87;;;;;;;0.94;100.00;100935.59;1673150;86;21068;-77
2022/11/28 20:56:17;;;;;;;40.43;17.25;;;;;;;0.89;100.00;100934.78;1643262;86;21107;-78
2022/11/28 20:58:44;;;;;;;42.10;17.55;;;;;;;0.91;100.00;100936.80;1672270;85;22309;-77
2022/11/28 21:01:22;;;;;;;;;;;;;;;0.96;100.00;100933.55;1675810;85;21130;-77
2022/11/28 21:03:49;;;;;;;33.90;17.80;;;;;;;0.91;100.00;100927.91;1673796;86;20142;-78
2022/11/28 21:06:15;;;;;;;;;;;;;;;0.87;100.00;100926.09;1676172;86;21665;-77
2022/11/28 21:08:41;;;;;;;46.55;19.55;;;;;;;0.91;100.00;100929.25;1673351;86;20171;-78
2022/11/28 21:11:11;;;;;;;36.00;17.50;;;;;;;0.80;100.00;100929.17;1673439;84;21079;-77
2022/11/28 21:13:39;;;;;;;39.70;18.20;;;;;;;0.83;100.00;100926.62;1673228;86;21099;-77
2022/11/28 21:16:07;;;;;;;43.87;16.97;;;;;;;0.90;100.00;100928.41;1695915;83;21142;-77
2022/11/28 21:18:35;;;;;;;34.65;16.23;;;;;;;0.90;100.00;100920.88;1706100;84;21602;-76
2022/11/28 21:21:11;;;;;;;37.45;16.75;;;;;;;0.92;100.00;100928.25;1706108;84;21085;-78
2022/11/28 21:23:37;;;;;;;38.50;14.87;;;;;;;0.94;100.00;100923.02;1706162;83;21936;-77
2022/11/28 21:26:10;;;;;;;33.02;15.48;;;;;;;0.92;100.00;100927.71;1706580;84;21116;-77
2022/11/28 21:28:38;;;;;;;30.77;15.60;;;;;;;0.97;100.00;100934.72;1706283;84;21622;-77
2022/11/28 21:31:11;;;;;;;33.90;16.00;;;;;;;1.05;100.00;100928.96;1706022;84;21717;-78
2022/11/28 21:33:37;;;;;;;43.15;15.15;;;;;;;1.04;100.00;100934.83;1706311;84;21104;-77
2022/11/28 21:36:05;;;;;;;24.60;14.30;;;;;;;1.09;100.00;100935.13;1706337;84;21290;-77
2022/11/28 21:38:31;;;;;;;36.50;14.15;;;;;;;1.17;100.00;100939.06;1708791;82;21124;-77
2022/11/28 21:40:58;;;;;;;46.48;15.65;;;;;;;1.20;100.00;100939.22;1737475;81;21072;-77
2022/11/28 21:43:26;;;;;;;;;;;;;;;1.14;100.00;100939.93;1738828;82;21151;-77
2022/11/28 21:45:53;;;;;;;36.30;14.13;;;;;;;1.16;100.00;100938.75;1736390;82;20424;-77
2022/11/28 21:48:19;;;;;;;44.73;15.75;;;;;;;1.17;100.00;100941.73;1730803;81;21062;-77
2022/11/28 21:50:47;;;;;;;;;;;;;;;1.14;100.00;100943.45;1717409;83;21066;-77
2022/11/28 21:53:14;;;;;;;33.18;14.33;;;;;;;1.17;100.00;100943.62;1715032;83;20141;-77
2022/11/28 21:55:41;;;;;;;31.87;13.80;;;;;;;1.16;100.00;100944.12;1714913;83;21553;-78
2022/11/28 21:58:07;;;;;;;30.05;15.45;;;;;;;1.13;100.00;100945.83;1715079;83;21032;-78
2022/11/28 22:00:34;;;;;;;29.42;14.30;;;;;;;1.17;100.00;100951.13;1714644;83;21071;-78
2022/11/28 22:03:00;;;;;;;45.52;17.52;;;;;;;1.23;100.00;100943.72;1714468;83;21082;-78
2022/11/28 22:05:28;;;;;;;;;;;;;;;1.26;100.00;100944.69;1717550;83;21085;-77
2022/11/28 22:07:55;;;;;;;;;;;;;;;1.26;100.00;100950.56;1717509;83;20467;-77
2022/11/28 22:10:22;;;;;;;33.58;17.67;;;;;;;1.29;100.00;100951.53;1714792;83;20176;-79
2022/11/28 22:12:48;;;;;;;;;;;;;;;1.28;100.00;100948.02;1717191;83;21158;-77
2022/11/28 22:15:16;;;;;;;48.13;25.72;;;;;;;1.26;100.00;100945.19;1714385;83;20149;-77
2022/11/28 22:17:43;;;;;;;50.15;26.10;;;;;;;1.16;100.00;100948.14;1713441;84;21136;-78
2022/11/28 22:20:10;;;;;;;51.73;27.07;;;;;;;1.23;100.00;100947.74;1713784;82;21077;-77
2022/11/28 22:22:37;;;;;;;38.92;13.55;;;;;;;1.30;100.00;100946.00;1747677;82;21489;-77
2022/11/28 22:25:05;;;;;;;39.33;21.73;;;;;;;1.28;100.00;100940.47;1748158;82;21070;-77
2022/11/28 22:27:34;;;;;;;30.88;10.98;;;;;;;1.32;100.00;100947.98;1748622;82;21031;-78
2022/11/28 22:30:01;;;;;;;44.08;11.53;;;;;;;1.38;100.00;100936.50;1734342;82;21067;-77
2022/11/28 22:32:28;;;;;;;20.70;13.10;;;;;;;1.34;100.00;100925.84;1751141;82;21097;-77
2022/11/28 22:34:56;;;;;;;29.12;16.50;;;;;;;1.36;100.00;100930.50;1734823;82;21023;-78
2022/11/28 22:37:23;;;;;;;;;;;;;;;1.42;100.00;100928.92;1754242;82;21154;-77
2022/11/28 22:39:49;;;;;;;21.35;11.03;;;;;;;1.39;100.00;100929.30;1751656;82;20161;-77
2022/11/28 22:42:16;;;;;;;;;;;;;;;1.32;100.00;100918.97;1754058;82;21083;-78
2022/11/28 22:44:43;;;;;;;20.10;12.75;;;;;;;1.40;100.00;100925.60;1751680;82;20132;-77
2022/11/28 22:47:09;;;;;;;24.18;11.95;;;;;;;1.31;100.00;100924.03;1751623;82;21071;-78
2022/11/28 22:49:36;;;;;;;;;;;;;;;1.31;100.00;100919.47;1753938;82;21043;-77
2022/11/28 22:52:02;;;;;;;46.10;21.23;;;;;;;1.37;100.00;100921.95;1751042;82;20125;-76
2022/11/28 22:54:29;;;;;;;49.00;24.47;;;;;;;1.29;100.00;100920.68;1734441;82;21055;-77
2022/11/28 22:56:56;;;;;;;;;;;;;;;1.33;100.00;100913.94;1737193;82;21114;-75
2022/11/28 22:59:22;;;;;;;35.38;17.73;;;;;;;1.37;100.00;100918.77;1753156;82;20442;-74
2022/11/28 23:01:48;;;;;;;21.25;11.63;;;;;;;1.28;100.00;100910.95;1753087;82;21051;-75
2022/11/28 23:04:16;;;;;;;20.02;11.55;;;;;;;1.29;100.00;100909.45;1753424;82;20952;-74
2022/11/28 23:06:43;;;;;;;16.80;9.55;;;;;;;1.37;100.00;100913.91;1752964;82;21050;-74
2022/11/28 23:09:11;;;;;;;16.30;8.78;;;;;;;1.38;100.00;100914.23;1753384;82;21479;-75
2022/11/28 23:11:38;;;;;;;30.23;9.63;;;;;;;1.45;100.00;100911.14;1695630;82;21055;-75
2022/11/28 23:14:05;;;;;;;12.93;8.65;;;;;;;1.41;100.00;100910.67;1753118;82;21519;-74
2022/11/28 23:16:34;;;;;;;21.30;8.83;;;;;;;1.42;100.00;100918.19;1768919;80;21004;-75
2022/11/28 23:19:04;;;;;;;18.15;8.85;;;;;;;1.49;100.00;100917.77;1778939;81;21039;-74
2022/11/28 23:21:34;;;;;;;12.68;8.05;;;;;;;1.46;100.00;100909.59;1778856;80;21007;-75
2022/11/28 23:24:03;;;;;;;11.93;7.15;;;;;;;1.46;100.00;100909.59;1750849;81;21373;-75
2022/11/28 23:26:30;;;;;;;18.05;8.48;;;;;;;1.49;100.00;100909.22;1750719;80;21031;-73
2022/11/28 23:29:02;;;;;;;13.58;7.50;;;;;;;1.43;100.00;100906.45;1750752;81;21038;-75
2022/11/28 23:31:30;;;;;;;12.53;7.33;;;;;;;1.43;100.00;100905.11;1778560;80;21027;-76
2022/11/28 23:33:59;;;;;;;14.15;7.17;;;;;;;1.47;100.00;100913.95;1778846;81;21309;-76
2022/11/28 23:36:30;;;;;;;23.85;7.67;;;;;;;1.47;100.00;100913.95;1778584;80;21105;-76
2022/11/28 23:39:01;;;;;;;14.98;7.37;;;;;;;1.41;100.00;100912.52;1750701;81;20975;-77
2022/11/28 23:41:28;;;;;;;17.05;7.87;;;;;;;1.42;100.00;100915.50;1778134;80;21043;-76
2022/11/28 23:43:54;;;;;;;18.60;7.08;;;;;;;1.40;100.00;100918.89;1750895;81;21431;-77
2022/11/28 23:46:21;;;;;;;19.80;8.90;;;;;;;1.35;100.00;100914.07;1778811;80;21560;-77
2022/11/28 23:48:48;;;;;;;19.60;7.83;;;;;;;1.40;100.00;100910.84;1778868;81;21502;-77
2022/11/28 23:51:17;;;;;;;15.10;6.47;;;;;;;1.41;100.00;100913.36;1778882;81;21046;-78
2022/11/28 23:53:44;;;;;;;14.00;7.05;;;;;;;1.37;100.00;100913.40;1778865;81;21038;-76
2022/11/28 23:56:16;;;;;;;17.87;6.33;;;;;;;1.43;100.00;100907.28;1778826;81;21019;-76
2022/11/28 23:58:43;;;;;;;12.98;7.25;;;;;;;1.45;100.00;100906.58;1749771;81;21035;-77
